sensor_id;sensor_type;location;lat;lon;timestamp;P1;durP1;ratioP1;P2;durP2;ratioP2
78781;SDS011;68126;55.748;48.742;2023-09-19T01:00:21;3.90;;;2.08;;
78781;SDS011;68126;55.748;48.742;2023-09-19T01:05:46;4.65;;;1.77;;
78781;SDS011;68126;55.748;48.742;2023-09-19T01:16:58;3.15;;;1.40;;
78781;SDS011;68126;55.748;48.742;2023-09-19T01:27:53;3.62;;;1.80;;
78781;SDS011;68126;55.748;48.742;2023-09-19T01:33:15;4.03;;;2.45;;
78781;SDS011;68126;55.748;48.742;2023-09-19T01:38:40;5.12;;;1.95;;
78781;SDS011;68126;55.748;48.742;2023-09-19T01:44:06;4.30;;;2.10;;
78781;SDS011;68126;55.748;48.742;2023-09-19T01:55:16;2.72;;;2.00;;
78781;SDS011;68126;55.748;48.742;2023-09-19T02:00:42;4.45;;;1.92;;
78781;SDS011;68126;55.748;48.742;2023-09-19T02:06:08;2.17;;;1.57;;
78781;SDS011;68126;55.748;48.742;2023-09-19T02:11:36;2.72;;;1.75;;
78781;SDS011;68126;55.748;48.742;2023-09-19T02:17:01;4.17;;;2.08;;
78781;SDS011;68126;55.748;48.742;2023-09-19T02:22:46;2.92;;;1.55;;
78781;SDS011;68126;55.748;48.742;2023-09-19T02:28:13;4.42;;;2.33;;
78781;SDS011;68126;55.748;48.742;2023-09-19T02:33:37;2.98;;;1.98;;
78781;SDS011;68126;55.748;48.742;2023-09-19T02:39:02;5.85;;;2.02;;
78781;SDS011;68126;55.748;48.742;2023-09-19T02:44:28;3.12;;;1.87;;
78781;SDS011;68126;55.748;48.742;2023-09-19T02:49:53;2.95;;;1.72;;
78781;SDS011;68126;55.748;48.742;2023-09-19T02:55:18;2.60;;;1.57;;
78781;SDS011;68126;55.748;48.742;2023-09-19T03:00:44;3.35;;;1.62;;
78781;SDS011;68126;55.748;48.742;2023-09-19T03:06:28;1.82;;;1.10;;
78781;SDS011;68126;55.748;48.742;2023-09-19T03:11:53;2.72;;;1.85;;
78781;SDS011;68126;55.748;48.742;2023-09-19T03:17:38;2.72;;;1.60;;
78781;SDS011;68126;55.748;48.742;2023-09-19T03:23:04;3.55;;;1.57;;
78781;SDS011;68126;55.748;48.742;2023-09-19T03:28:29;5.72;;;1.95;;
78781;SDS011;68126;55.748;48.742;2023-09-19T03:33:53;3.55;;;1.65;;
78781;SDS011;68126;55.748;48.742;2023-09-19T03:39:18;2.65;;;1.55;;
78781;SDS011;68126;55.748;48.742;2023-09-19T03:44:43;2.02;;;1.10;;
78781;SDS011;68126;55.748;48.742;2023-09-19T03:50:08;2.98;;;1.25;;
78781;SDS011;68126;55.748;48.742;2023-09-19T03:55:53;2.58;;;1.37;;
78781;SDS011;68126;55.748;48.742;2023-09-19T04:01:17;3.08;;;0.80;;
78781;SDS011;68126;55.748;48.742;2023-09-19T04:06:42;1.52;;;0.98;;
78781;SDS011;68126;55.748;48.742;2023-09-19T04:12:07;1.70;;;0.50;;
78781;SDS011;68126;55.748;48.742;2023-09-19T04:17:32;1.50;;;0.90;;
78781;SDS011;68126;55.748;48.742;2023-09-19T04:22:56;2.17;;;0.90;;
78781;SDS011;68126;55.748;48.742;2023-09-19T04:28:22;3.37;;;1.37;;
78781;SDS011;68126;55.748;48.742;2023-09-19T04:33:49;2.90;;;1.12;;
78781;SDS011;68126;55.748;48.742;2023-09-19T04:39:14;3.40;;;0.72;;
78781;SDS011;68126;55.748;48.742;2023-09-19T04:44:40;1.92;;;0.75;;
78781;SDS011;68126;55.748;48.742;2023-09-19T04:55:51;1.60;;;0.72;;
78781;SDS011;68126;55.748;48.742;2023-09-19T05:01:17;2.30;;;1.37;;
78781;SDS011;68126;55.748;48.742;2023-09-19T05:06:45;1.60;;;0.70;;
78781;SDS011;68126;55.748;48.742;2023-09-19T05:12:10;2.20;;;0.93;;
78781;SDS011;68126;55.748;48.742;2023-09-19T05:23:20;2.30;;;0.78;;
78781;SDS011;68126;55.748;48.742;2023-09-19T05:28:44;1.60;;;1.07;;
78781;SDS011;68126;55.748;48.742;2023-09-19T05:39:54;2.15;;;0.95;;
78781;SDS011;68126;55.748;48.742;2023-09-19T05:45:19;2.10;;;0.70;;
78781;SDS011;68126;55.748;48.742;2023-09-19T05:51:04;1.75;;;0.65;;
78781;SDS011;68126;55.748;48.742;2023-09-19T05:56:29;3.60;;;1.57;;
78781;SDS011;68126;55.748;48.742;2023-09-19T06:01:53;1.90;;;0.35;;
78781;SDS011;68126;55.748;48.742;2023-09-19T06:07:18;3.40;;;0.68;;
78781;SDS011;68126;55.748;48.742;2023-09-19T06:12:44;3.67;;;0.40;;
78781;SDS011;68126;55.748;48.742;2023-09-19T06:18:10;2.98;;;0.55;;
78781;SDS011;68126;55.748;48.742;2023-09-19T06:23:55;3.47;;;0.85;;
78781;SDS011;68126;55.748;48.742;2023-09-19T06:29:20;0.80;;;0.60;;
78781;SDS011;68126;55.748;48.742;2023-09-19T06:34:51;0.90;;;0.62;;
78781;SDS011;68126;55.748;48.742;2023-09-19T06:40:12;0.65;;;0.50;;
78781;SDS011;68126;55.748;48.742;2023-09-19T06:45:38;4.90;;;1.40;;
78781;SDS011;68126;55.748;48.742;2023-09-19T06:51:04;0.50;;;0.25;;
78781;SDS011;68126;55.748;48.742;2023-09-19T06:56:29;1.67;;;1.27;;
78781;SDS011;68126;55.748;48.742;2023-09-19T07:01:55;1.60;;;0.45;;
78781;SDS011;68126;55.748;48.742;2023-09-19T07:07:21;1.22;;;0.60;;
78781;SDS011;68126;55.748;48.742;2023-09-19T07:12:46;1.67;;;0.37;;
78781;SDS011;68126;55.748;48.742;2023-09-19T07:18:11;1.05;;;0.45;;
78781;SDS011;68126;55.748;48.742;2023-09-19T07:23:36;0.98;;;0.45;;
78781;SDS011;68126;55.748;48.742;2023-09-19T07:29:01;0.55;;;0.28;;
78781;SDS011;68126;55.748;48.742;2023-09-19T07:34:26;1.52;;;0.10;;
78781;SDS011;68126;55.748;48.742;2023-09-19T07:39:51;1.25;;;0.20;;
78781;SDS011;68126;55.748;48.742;2023-09-19T07:45:16;4.03;;;0.80;;
78781;SDS011;68126;55.748;48.742;2023-09-19T07:50:41;1.37;;;0.53;;
78781;SDS011;68126;55.748;48.742;2023-09-19T07:56:25;0.80;;;0.20;;
78781;SDS011;68126;55.748;48.742;2023-09-19T08:01:50;0.50;;;0.10;;
78781;SDS011;68126;55.748;48.742;2023-09-19T08:07:14;1.87;;;0.47;;
78781;SDS011;68126;55.748;48.742;2023-09-19T08:12:40;0.68;;;0.23;;
78781;SDS011;68126;55.748;48.742;2023-09-19T08:18:08;0.80;;;0.33;;
78781;SDS011;68126;55.748;48.742;2023-09-19T08:23:34;1.42;;;0.25;;
78781;SDS011;68126;55.748;48.742;2023-09-19T08:34:26;2.77;;;0.40;;
78781;SDS011;68126;55.748;48.742;2023-09-19T08:39:52;3.52;;;0.50;;
78781;SDS011;68126;55.748;48.742;2023-09-19T08:45:20;1.00;;;0.40;;
78781;SDS011;68126;55.748;48.742;2023-09-19T08:56:50;1.30;;;0.33;;
78781;SDS011;68126;55.748;48.742;2023-09-19T09:02:15;1.70;;;0.60;;
78781;SDS011;68126;55.748;48.742;2023-09-19T09:07:41;4.00;;;0.28;;
78781;SDS011;68126;55.748;48.742;2023-09-19T09:13:26;0.98;;;0.28;;
78781;SDS011;68126;55.748;48.742;2023-09-19T09:18:51;1.02;;;0.15;;
78781;SDS011;68126;55.748;48.742;2023-09-19T09:30:02;1.45;;;0.15;;
78781;SDS011;68126;55.748;48.742;2023-09-19T09:35:29;1.00;;;0.10;;
78781;SDS011;68126;55.748;48.742;2023-09-19T09:40:54;1.60;;;0.23;;
78781;SDS011;68126;55.748;48.742;2023-09-19T09:46:21;1.85;;;0.40;;
78781;SDS011;68126;55.748;48.742;2023-09-19T09:57:21;0.72;;;0.40;;
78781;SDS011;68126;55.748;48.742;2023-09-19T10:02:47;1.32;;;0.10;;
78781;SDS011;68126;55.748;48.742;2023-09-19T10:08:13;1.30;;;0.10;;
78781;SDS011;68126;55.748;48.742;2023-09-19T10:13:58;0.95;;;0.28;;
78781;SDS011;68126;55.748;48.742;2023-09-19T10:25:10;3.12;;;0.30;;
78781;SDS011;68126;55.748;48.742;2023-09-19T10:30:35;1.65;;;0.33;;
78781;SDS011;68126;55.748;48.742;2023-09-19T10:36:02;0.68;;;0.28;;
78781;SDS011;68126;55.748;48.742;2023-09-19T10:41:29;0.60;;;0.23;;
78781;SDS011;68126;55.748;48.742;2023-09-19T10:47:14;2.65;;;0.37;;
78781;SDS011;68126;55.748;48.742;2023-09-19T10:58:08;2.25;;;0.10;;
78781;SDS011;68126;55.748;48.742;2023-09-19T11:03:35;1.52;;;0.62;;
78781;SDS011;68126;55.748;48.742;2023-09-19T11:09:02;0.95;;;0.13;;
78781;SDS011;68126;55.748;48.742;2023-09-19T11:25:43;1.00;;;0.20;;
78781;SDS011;68126;55.748;48.742;2023-09-19T11:36:55;2.22;;;0.17;;
78781;SDS011;68126;55.748;48.742;2023-09-19T11:48:07;1.20;;;0.25;;
78781;SDS011;68126;55.748;48.742;2023-09-19T11:53:34;2.70;;;0.20;;
78781;SDS011;68126;55.748;48.742;2023-09-19T11:58:59;1.15;;;0.20;;
78781;SDS011;68126;55.748;48.742;2023-09-19T12:10:11;2.25;;;0.37;;
78781;SDS011;68126;55.748;48.742;2023-09-19T12:15:38;0.80;;;0.23;;
78781;SDS011;68126;55.748;48.742;2023-09-19T12:21:04;1.95;;;0.40;;
78781;SDS011;68126;55.748;48.742;2023-09-19T12:32:15;1.47;;;0.23;;
78781;SDS011;68126;55.748;48.742;2023-09-19T12:44:02;1.20;;;0.13;;
78781;SDS011;68126;55.748;48.742;2023-09-19T12:54:41;1.77;;;0.30;;
78781;SDS011;68126;55.748;48.742;2023-09-19T13:00:08;1.12;;;0.25;;
78781;SDS011;68126;55.748;48.742;2023-09-19T13:11:19;3.25;;;0.20;;
78781;SDS011;68126;55.748;48.742;2023-09-19T13:28:37;1.40;;;0.33;;
78781;SDS011;68126;55.748;48.742;2023-09-19T13:34:02;2.22;;;0.10;;
78781;SDS011;68126;55.748;48.742;2023-09-19T13:39:27;1.32;;;0.20;;
78781;SDS011;68126;55.748;48.742;2023-09-19T13:44:51;10.63;;;0.40;;
78781;SDS011;68126;55.748;48.742;2023-09-19T13:50:16;1.22;;;0.35;;
78781;SDS011;68126;55.748;48.742;2023-09-19T13:55:43;1.35;;;0.33;;
78781;SDS011;68126;55.748;48.742;2023-09-19T14:01:08;2.67;;;0.37;;
78781;SDS011;68126;55.748;48.742;2023-09-19T14:06:35;2.10;;;0.50;;
78781;SDS011;68126;55.748;48.742;2023-09-19T14:11:59;2.25;;;0.70;;
78781;SDS011;68126;55.748;48.742;2023-09-19T14:17:24;1.82;;;0.55;;
78781;SDS011;68126;55.748;48.742;2023-09-19T14:22:50;1.90;;;0.45;;
78781;SDS011;68126;55.748;48.742;2023-09-19T14:28:15;1.45;;;0.45;;
78781;SDS011;68126;55.748;48.742;2023-09-19T14:33:40;3.47;;;0.33;;
78781;SDS011;68126;55.748;48.742;2023-09-19T14:44:32;2.55;;;0.25;;
78781;SDS011;68126;55.748;48.742;2023-09-19T14:49:57;3.45;;;0.60;;
78781;SDS011;68126;55.748;48.742;2023-09-19T14:55:22;3.60;;;0.88;;
78781;SDS011;68126;55.748;48.742;2023-09-19T15:00:48;3.15;;;0.50;;
78781;SDS011;68126;55.748;48.742;2023-09-19T15:06:14;2.30;;;1.20;;
78781;SDS011;68126;55.748;48.742;2023-09-19T15:11:41;4.17;;;0.85;;
78781;SDS011;68126;55.748;48.742;2023-09-19T15:17:06;3.62;;;1.07;;
78781;SDS011;68126;55.748;48.742;2023-09-19T15:22:31;1.72;;;0.82;;
78781;SDS011;68126;55.748;48.742;2023-09-19T15:27:56;2.70;;;0.88;;
78781;SDS011;68126;55.748;48.742;2023-09-19T15:33:22;1.45;;;0.55;;
78781;SDS011;68126;55.748;48.742;2023-09-19T15:44:16;3.30;;;1.45;;
78781;SDS011;68126;55.748;48.742;2023-09-19T15:49:41;4.22;;;0.88;;
78781;SDS011;68126;55.748;48.742;2023-09-19T15:55:06;8.25;;;1.25;;
78781;SDS011;68126;55.748;48.742;2023-09-19T16:00:32;3.20;;;1.10;;
78781;SDS011;68126;55.748;48.742;2023-09-19T16:05:58;3.15;;;0.88;;
78781;SDS011;68126;55.748;48.742;2023-09-19T16:11:23;2.58;;;1.17;;
78781;SDS011;68126;55.748;48.742;2023-09-19T16:16:48;3.30;;;0.90;;
78781;SDS011;68126;55.748;48.742;2023-09-19T16:22:13;2.90;;;0.60;;
78781;SDS011;68126;55.748;48.742;2023-09-19T16:27:37;3.50;;;0.60;;
78781;SDS011;68126;55.748;48.742;2023-09-19T16:33:02;3.27;;;0.60;;
78781;SDS011;68126;55.748;48.742;2023-09-19T16:38:28;2.02;;;0.80;;
78781;SDS011;68126;55.748;48.742;2023-09-19T16:43:53;4.15;;;1.12;;
78781;SDS011;68126;55.748;48.742;2023-09-19T16:54:44;4.78;;;1.72;;
78781;SDS011;68126;55.748;48.742;2023-09-19T17:00:09;1.40;;;0.62;;
78781;SDS011;68126;55.748;48.742;2023-09-19T17:05:35;2.83;;;2.20;;
78781;SDS011;68126;55.748;48.742;2023-09-19T17:16:46;1.50;;;0.50;;
78781;SDS011;68126;55.748;48.742;2023-09-19T17:22:11;2.10;;;0.53;;
78781;SDS011;68126;55.748;48.742;2023-09-19T17:27:36;3.02;;;0.60;;
78781;SDS011;68126;55.748;48.742;2023-09-19T17:33:01;1.67;;;0.80;;
78781;SDS011;68126;55.748;48.742;2023-09-19T17:38:26;2.02;;;1.30;;
78781;SDS011;68126;55.748;48.742;2023-09-19T17:44:21;1.40;;;0.40;;
78781;SDS011;68126;55.748;48.742;2023-09-19T17:49:17;1.27;;;0.50;;
78781;SDS011;68126;55.748;48.742;2023-09-19T18:00:28;0.70;;;0.40;;
78781;SDS011;68126;55.748;48.742;2023-09-19T18:05:53;1.62;;;0.93;;
78781;SDS011;68126;55.748;48.742;2023-09-19T18:16:45;2.87;;;0.55;;
78781;SDS011;68126;55.748;48.742;2023-09-19T18:22:10;0.75;;;0.33;;
78781;SDS011;68126;55.748;48.742;2023-09-19T18:27:36;3.17;;;0.50;;
78781;SDS011;68126;55.748;48.742;2023-09-19T18:33:05;1.05;;;0.37;;
78781;SDS011;68126;55.748;48.742;2023-09-19T18:38:30;1.00;;;0.30;;
78781;SDS011;68126;55.748;48.742;2023-09-19T18:43:55;4.00;;;0.55;;
78781;SDS011;68126;55.748;48.742;2023-09-19T18:49:22;1.77;;;0.30;;
78781;SDS011;68126;55.748;48.742;2023-09-19T18:54:47;1.85;;;0.55;;
78781;SDS011;68126;55.748;48.742;2023-09-19T19:00:12;3.02;;;0.57;;
78781;SDS011;68126;55.748;48.742;2023-09-19T19:05:57;2.08;;;0.60;;
78781;SDS011;68126;55.748;48.742;2023-09-19T19:11:22;1.25;;;0.70;;
78781;SDS011;68126;55.748;48.742;2023-09-19T19:16:48;0.98;;;0.40;;
78781;SDS011;68126;55.748;48.742;2023-09-19T19:22:12;1.80;;;0.90;;
78781;SDS011;68126;55.748;48.742;2023-09-19T19:27:39;1.75;;;0.90;;
78781;SDS011;68126;55.748;48.742;2023-09-19T19:33:04;2.00;;;1.15;;
78781;SDS011;68126;55.748;48.742;2023-09-19T19:38:29;5.80;;;1.75;;
78781;SDS011;68126;55.748;48.742;2023-09-19T19:43:59;3.92;;;0.82;;
78781;SDS011;68126;55.748;48.742;2023-09-19T19:49:24;1.72;;;0.62;;
78781;SDS011;68126;55.748;48.742;2023-09-19T19:54:49;0.72;;;0.40;;
78781;SDS011;68126;55.748;48.742;2023-09-19T20:00:13;1.60;;;1.17;;
78781;SDS011;68126;55.748;48.742;2023-09-19T20:05:59;0.90;;;0.30;;
78781;SDS011;68126;55.748;48.742;2023-09-19T20:11:25;1.42;;;0.53;;
78781;SDS011;68126;55.748;48.742;2023-09-19T20:16:51;2.65;;;0.80;;
78781;SDS011;68126;55.748;48.742;2023-09-19T20:22:16;1.37;;;0.60;;
78781;SDS011;68126;55.748;48.742;2023-09-19T20:27:41;1.27;;;0.62;;
78781;SDS011;68126;55.748;48.742;2023-09-19T20:33:06;2.45;;;0.50;;
78781;SDS011;68126;55.748;48.742;2023-09-19T20:44:19;1.12;;;0.70;;
78781;SDS011;68126;55.748;48.742;2023-09-19T20:49:44;1.37;;;0.95;;
78781;SDS011;68126;55.748;48.742;2023-09-19T20:55:09;2.20;;;0.60;;
78781;SDS011;68126;55.748;48.742;2023-09-19T21:00:34;0.80;;;0.50;;
78781;SDS011;68126;55.748;48.742;2023-09-19T21:11:45;1.47;;;0.40;;
78781;SDS011;68126;55.748;48.742;2023-09-19T21:17:09;3.17;;;0.50;;
78781;SDS011;68126;55.748;48.742;2023-09-19T21:22:34;2.27;;;0.88;;
78781;SDS011;68126;55.748;48.742;2023-09-19T21:27:59;1.22;;;1.12;;
78781;SDS011;68126;55.748;48.742;2023-09-19T21:33:24;1.92;;;0.40;;
78781;SDS011;68126;55.748;48.742;2023-09-19T21:38:49;1.35;;;0.47;;
78781;SDS011;68126;55.748;48.742;2023-09-19T21:44:16;0.85;;;0.70;;
78781;SDS011;68126;55.748;48.742;2023-09-19T21:49:40;2.90;;;0.72;;
78781;SDS011;68126;55.748;48.742;2023-09-19T21:55:05;1.02;;;0.75;;
78781;SDS011;68126;55.748;48.742;2023-09-19T22:00:30;0.98;;;0.55;;
78781;SDS011;68126;55.748;48.742;2023-09-19T22:06:15;0.90;;;0.50;;
78781;SDS011;68126;55.748;48.742;2023-09-19T22:11:40;0.98;;;0.45;;
78781;SDS011;68126;55.748;48.742;2023-09-19T22:17:05;2.45;;;0.62;;
78781;SDS011;68126;55.748;48.742;2023-09-19T22:22:30;1.00;;;0.65;;
78781;SDS011;68126;55.748;48.742;2023-09-19T22:27:55;2.02;;;0.85;;
78781;SDS011;68126;55.748;48.742;2023-09-19T22:33:20;3.12;;;0.50;;
78781;SDS011;68126;55.748;48.742;2023-09-19T22:38:45;2.00;;;0.40;;
78781;SDS011;68126;55.748;48.742;2023-09-19T22:44:09;3.62;;;0.80;;
78781;SDS011;68126;55.748;48.742;2023-09-19T22:49:35;2.65;;;0.50;;
78781;SDS011;68126;55.748;48.742;2023-09-19T22:55:00;1.95;;;0.57;;
78781;SDS011;68126;55.748;48.742;2023-09-19T23:00:27;1.80;;;0.85;;
78781;SDS011;68126;55.748;48.742;2023-09-19T23:05:53;4.83;;;0.40;;
78781;SDS011;68126;55.748;48.742;2023-09-19T23:11:19;2.20;;;0.70;;
78781;SDS011;68126;55.748;48.742;2023-09-19T23:16:45;3.27;;;0.65;;
78781;SDS011;68126;55.748;48.742;2023-09-19T23:22:12;2.45;;;0.80;;
78781;SDS011;68126;55.748;48.742;2023-09-19T23:27:56;5.17;;;0.98;;
78781;SDS011;68126;55.748;48.742;2023-09-19T23:33:22;2.00;;;0.40;;
78781;SDS011;68126;55.748;48.742;2023-09-19T23:38:48;1.98;;;1.12;;
78781;SDS011;68126;55.748;48.742;2023-09-19T23:44:15;3.58;;;0.40;;
78781;SDS011;68126;55.748;48.742;2023-09-19T23:49:40;2.02;;;0.65;;
78781;SDS011;68126;55.748;48.742;2023-09-19T23:55:05;1.35;;;0.75;;
